Time;durP1;ratioP1;P1;durP2;ratioP2;P2;SDS_P1;SDS_P2;PMS_P1;PMS_P2;Temp;Humidity;BMP_temperature;BMP_pressure;BME280_temperature;BME280_humidity;BME280_pressure;Samples;Min_cycle;Max_cycle;Signal;HPM_P1;HPM_P2
2020/12/31 00:00:46;;;;;;;10.37;6.97;;;4.50;99.90;;;;;;4975326;29;20432;-59
2020/12/31 00:03:12;;;;;;;8.67;6.37;;;4.40;99.90;;;;;;4975309;29;20451;-55
2020/12/31 00:05:40;;;;;;;9.77;6.33;;;4.40;99.90;;;;;;4974453;29;20463;-57
2020/12/31 00:08:06;;;;;;;10.23;6.67;;;4.40;99.90;;;;;;4974743;29;20454;-57
2020/12/31 00:10:32;;;;;;;12.93;6.10;;;4.30;99.90;;;;;;4974894;29;20447;-59
2020/12/31 00:12:59;;;;;;;9.00;6.00;;;4.30;99.90;;;;;;4975523;29;20498;-56
2020/12/31 00:15:25;;;;;;;9.77;6.00;;;4.20;99.90;;;;;;4975665;29;20487;-58
2020/12/31 00:17:52;;;;;;;11.10;6.93;;;4.10;99.90;;;;;;4975532;29;20467;-58
2020/12/31 00:20:18;;;;;;;9.53;6.73;;;4.10;99.90;;;;;;4975736;29;20451;-57
2020/12/31 00:22:45;;;;;;;8.57;6.47;;;4.00;99.90;;;;;;4975245;29;20431;-58
2020/12/31 00:25:12;;;;;;;10.43;6.37;;;4.00;99.90;;;;;;4975616;29;20462;-58
2020/12/31 00:27:38;;;;;;;8.33;6.80;;;4.00;99.90;;;;;;4976049;29;20491;-59
2020/12/31 00:30:07;;;;;;;10.17;6.20;;;4.00;99.90;;;;;;4975604;29;20436;-59
2020/12/31 00:32:33;;;;;;;12.87;6.53;;;3.90;99.90;;;;;;4975212;29;20468;-58
2020/12/31 00:34:59;;;;;;;11.67;7.03;;;4.00;99.90;;;;;;4975085;29;20510;-59
2020/12/31 00:37:26;;;;;;;9.17;7.10;;;4.00;99.90;;;;;;4975497;29;20448;-59
2020/12/31 00:39:53;;;;;;;8.83;6.00;;;4.00;99.90;;;;;;4975467;29;20452;-57
2020/12/31 00:42:19;;;;;;;10.97;6.73;;;4.10;99.90;;;;;;4975556;29;20435;-58
2020/12/31 00:44:46;;;;;;;8.00;5.50;;;4.00;99.90;;;;;;4975334;29;20488;-58
2020/12/31 00:47:12;;;;;;;8.43;6.90;;;4.10;99.90;;;;;;4975361;29;20511;-60
2020/12/31 00:49:38;;;;;;;8.90;6.57;;;4.10;99.90;;;;;;4977499;28;20491;-59
2020/12/31 00:52:05;;;;;;;9.30;6.13;;;4.10;99.90;;;;;;4978861;29;20472;-59
2020/12/31 00:54:31;;;;;;;8.17;5.30;;;4.10;99.90;;;;;;4978604;29;20485;-59
2020/12/31 00:56:58;;;;;;;8.00;6.53;;;4.10;99.90;;;;;;4978833;29;20472;-59
2020/12/31 00:59:25;;;;;;;10.20;6.03;;;4.10;99.90;;;;;;4978522;29;20475;-60
2020/12/31 01:01:51;;;;;;;9.13;5.97;;;4.10;99.90;;;;;;4978650;29;20447;-58
2020/12/31 01:04:17;;;;;;;8.80;7.00;;;4.10;99.90;;;;;;4977692;29;20475;-59
2020/12/31 01:06:44;;;;;;;9.60;6.50;;;4.10;99.90;;;;;;4977322;29;20455;-59
2020/12/31 01:09:10;;;;;;;10.57;6.30;;;4.10;99.90;;;;;;4977450;29;20436;-59
2020/12/31 01:11:38;;;;;;;8.73;6.13;;;4.10;99.90;;;;;;4978176;29;20459;-59
2020/12/31 01:14:06;;;;;;;8.77;6.43;;;4.00;99.90;;;;;;4978579;29;21003;-57
2020/12/31 01:16:32;;;;;;;9.97;6.27;;;4.00;99.90;;;;;;4978064;29;20515;-59
2020/12/31 01:18:59;;;;;;;10.13;6.80;;;4.00;99.90;;;;;;4978405;29;20458;-58
2020/12/31 01:21:25;;;;;;;11.60;6.37;;;4.10;99.90;;;;;;4977939;29;20988;-59
2020/12/31 01:23:52;;;;;;;9.30;6.40;;;4.10;99.90;;;;;;4978287;29;20491;-58
2020/12/31 01:26:30;;;;;;;7.63;5.83;;;4.10;99.90;;;;;;4978793;29;20456;-60
2020/12/31 01:28:57;;;;;;;6.80;5.03;;;4.20;99.90;;;;;;4978695;29;20444;-58
2020/12/31 01:31:24;;;;;;;8.40;6.47;;;4.20;99.90;;;;;;4978238;29;20454;-56
2020/12/31 01:33:51;;;;;;;9.33;5.97;;;4.10;99.90;;;;;;4978051;29;20526;-56
2020/12/31 01:36:17;;;;;;;7.23;5.30;;;4.20;99.90;;;;;;4978086;29;20490;-55
2020/12/31 01:38:45;;;;;;;9.77;6.23;;;4.20;99.90;;;;;;4978220;29;20440;-58
2020/12/31 01:41:13;;;;;;;11.00;5.80;;;4.20;99.90;;;;;;4978300;29;20448;-59
2020/12/31 01:43:40;;;;;;;11.30;6.37;;;4.20;99.90;;;;;;4978712;29;20454;-59
2020/12/31 01:46:10;;;;;;;9.23;5.90;;;4.20;99.90;;;;;;4978342;29;20451;-59
2020/12/31 01:48:38;;;;;;;7.80;5.93;;;4.20;99.90;;;;;;4978304;29;20464;-57
2020/12/31 01:51:05;;;;;;;13.53;6.93;;;4.20;99.90;;;;;;4977988;29;20462;-58
2020/12/31 01:53:32;;;;;;;9.07;6.70;;;4.20;99.90;;;;;;4977636;29;20479;-59
2020/12/31 01:56:01;;;;;;;7.50;5.00;;;4.10;99.90;;;;;;4978057;29;20475;-58
2020/12/31 01:58:27;;;;;;;6.60;5.00;;;4.20;99.90;;;;;;4977565;29;20472;-57
2020/12/31 02:00:57;;;;;;;8.93;6.77;;;4.10;99.90;;;;;;4976730;28;20443;-60
2020/12/31 02:03:23;;;;;;;9.57;6.20;;;4.10;99.90;;;;;;4978156;29;20781;-59
2020/12/31 02:05:50;;;;;;;10.73;6.73;;;4.20;99.90;;;;;;4977617;29;20455;-59
2020/12/31 02:08:18;;;;;;;10.17;6.00;;;4.10;99.90;;;;;;4977842;29;20452;-59
2020/12/31 02:10:45;;;;;;;7.83;6.20;;;4.10;99.90;;;;;;4977811;29;20495;-59
2020/12/31 02:13:11;;;;;;;9.03;6.23;;;4.10;99.90;;;;;;4977873;29;20543;-58
2020/12/31 02:15:37;;;;;;;8.40;6.13;;;4.20;99.90;;;;;;4977332;29;20472;-59
2020/12/31 02:18:04;;;;;;;9.13;5.90;;;4.20;99.90;;;;;;4977428;29;20452;-58
2020/12/31 02:20:30;;;;;;;9.30;6.53;;;4.10;99.90;;;;;;4977540;29;20447;-57
2020/12/31 02:22:57;;;;;;;10.53;6.87;;;4.20;99.90;;;;;;4977729;29;20451;-59
2020/12/31 02:25:24;;;;;;;8.03;5.93;;;4.20;99.90;;;;;;4977603;29;20524;-59
2020/12/31 02:27:52;;;;;;;10.50;7.60;;;4.10;99.90;;;;;;4977261;29;20487;-57
2020/12/31 02:30:18;;;;;;;8.87;6.00;;;4.10;99.90;;;;;;4977088;29;20451;-57
2020/12/31 02:32:45;;;;;;;10.20;6.70;;;4.20;99.90;;;;;;4977302;29;20451;-59
2020/12/31 02:35:12;;;;;;;9.70;6.27;;;4.20;99.90;;;;;;4977351;29;20480;-59
2020/12/31 02:37:38;;;;;;;7.50;5.57;;;4.10;99.90;;;;;;4976806;29;20451;-57
2020/12/31 02:40:05;;;;;;;9.60;6.43;;;4.10;99.90;;;;;;4976579;29;20751;-59
2020/12/31 02:42:32;;;;;;;8.60;6.10;;;4.10;99.90;;;;;;4976366;29;20528;-58
2020/12/31 02:44:58;;;;;;;10.20;6.50;;;4.10;99.90;;;;;;4976482;29;20444;-60
2020/12/31 02:47:24;;;;;;;10.17;8.13;;;4.10;99.90;;;;;;4977152;29;20539;-58
2020/12/31 02:49:51;;;;;;;12.33;7.10;;;4.10;99.90;;;;;;4976923;29;20524;-58
2020/12/31 02:52:17;;;;;;;8.90;6.53;;;4.10;99.90;;;;;;4977164;29;20519;-59
2020/12/31 02:54:43;;;;;;;7.03;5.50;;;4.00;99.90;;;;;;4977200;29;20579;-59
2020/12/31 02:57:10;;;;;;;9.63;5.97;;;4.00;99.90;;;;;;4977333;29;20458;-58
2020/12/31 02:59:37;;;;;;;12.70;6.23;;;4.00;99.90;;;;;;4977428;29;20472;-57
2020/12/31 03:02:03;;;;;;;9.67;5.87;;;4.00;99.90;;;;;;4976811;29;20475;-57
2020/12/31 03:04:29;;;;;;;8.97;6.17;;;4.00;99.90;;;;;;4977184;29;20455;-58
2020/12/31 03:06:56;;;;;;;10.20;5.97;;;4.00;99.90;;;;;;4976804;29;20471;-58
2020/12/31 03:09:22;;;;;;;8.50;5.97;;;4.00;99.90;;;;;;4977059;29;20507;-59
2020/12/31 03:11:48;;;;;;;9.80;7.07;;;4.00;99.90;;;;;;4976997;28;20483;-59
2020/12/31 03:14:16;;;;;;;10.00;6.70;;;4.00;99.90;;;;;;4976398;29;20539;-59
2020/12/31 03:16:42;;;;;;;9.07;6.80;;;3.90;99.90;;;;;;4976762;29;20499;-58
2020/12/31 03:19:08;;;;;;;9.70;6.77;;;3.90;99.90;;;;;;4976422;29;20486;-59
2020/12/31 03:21:35;;;;;;;14.13;7.40;;;3.90;99.90;;;;;;4976539;29;20472;-60
2020/12/31 03:24:01;;;;;;;11.60;7.30;;;3.90;99.90;;;;;;4975942;29;20452;-60
2020/12/31 03:26:27;;;;;;;10.03;6.60;;;3.80;99.90;;;;;;4975928;29;20459;-58
2020/12/31 03:28:53;;;;;;;9.80;7.10;;;3.80;99.90;;;;;;4976888;29;20448;-59
2020/12/31 03:31:21;;;;;;;8.90;6.47;;;3.80;99.90;;;;;;4976977;29;20968;-59
2020/12/31 03:33:47;;;;;;;11.53;6.63;;;3.80;99.90;;;;;;4976747;29;20482;-58
2020/12/31 03:36:13;;;;;;;11.07;7.40;;;3.70;99.90;;;;;;4976997;29;20511;-60
2020/12/31 03:38:40;;;;;;;13.67;7.27;;;3.70;99.90;;;;;;4977001;29;20459;-58
2020/12/31 03:41:06;;;;;;;10.20;6.70;;;3.70;99.90;;;;;;4976952;29;20482;-59
2020/12/31 03:43:32;;;;;;;7.57;6.40;;;3.70;99.90;;;;;;4976428;29;20537;-58
2020/12/31 03:45:59;;;;;;;9.70;7.17;;;3.80;99.90;;;;;;4976517;29;20514;-59
2020/12/31 03:48:26;;;;;;;10.47;7.33;;;3.70;99.90;;;;;;4976732;29;20463;-60
2020/12/31 03:50:52;;;;;;;6.43;5.33;;;3.70;99.90;;;;;;4976758;29;20467;-60
2020/12/31 03:53:19;;;;;;;9.30;5.80;;;3.80;99.90;;;;;;4976667;29;20491;-58
2020/12/31 03:55:45;;;;;;;11.27;5.93;;;3.80;99.90;;;;;;4976630;29;20475;-60
2020/12/31 03:58:11;;;;;;;7.77;5.80;;;3.80;99.90;;;;;;4976884;29;20503;-58
2020/12/31 04:00:38;;;;;;;8.57;6.40;;;3.80;99.90;;;;;;4976907;29;20540;-59
2020/12/31 04:03:04;;;;;;;16.47;6.80;;;3.80;99.90;;;;;;4976809;29;20469;-58
2020/12/31 04:05:31;;;;;;;9.13;6.23;;;3.80;99.90;;;;;;4976635;29;20439;-58
2020/12/31 04:07:57;;;;;;;10.10;6.77;;;3.80;99.90;;;;;;4977374;29;20451;-58
2020/12/31 04:10:24;;;;;;;7.60;6.10;;;3.80;99.90;;;;;;4976639;29;20520;-60
2020/12/31 04:12:50;;;;;;;7.60;5.83;;;3.90;99.90;;;;;;4976509;29;20464;-58
2020/12/31 04:15:17;;;;;;;7.03;5.27;;;3.90;99.90;;;;;;5051691;23;20517;-57
2020/12/31 04:17:43;;;;;;;7.73;6.00;;;3.90;99.90;;;;;;5454175;23;20489;-54
2020/12/31 04:20:10;;;;;;;11.43;6.40;;;3.90;99.90;;;;;;5015138;28;20459;-59
2020/12/31 04:22:38;;;;;;;8.47;6.03;;;3.90;99.90;;;;;;5015097;28;20473;-58
2020/12/31 04:25:05;;;;;;;12.20;6.80;;;4.00;99.90;;;;;;5018568;28;20504;-59
2020/12/31 04:27:31;;;;;;;10.43;6.13;;;4.00;99.90;;;;;;5018871;28;20472;-58
2020/12/31 04:29:57;;;;;;;9.63;5.93;;;4.10;99.90;;;;;;5018983;28;20477;-59
2020/12/31 04:32:24;;;;;;;9.50;6.00;;;4.10;99.90;;;;;;5018913;28;20456;-57
2020/12/31 04:34:51;;;;;;;8.73;5.90;;;4.00;99.90;;;;;;5018819;28;20766;-55
2020/12/31 04:37:17;;;;;;;8.77;7.73;;;4.00;99.90;;;;;;5018527;28;20468;-59
2020/12/31 04:39:45;;;;;;;11.97;6.40;;;4.10;99.90;;;;;;5018897;28;20528;-59
2020/12/31 04:42:11;;;;;;;9.70;6.40;;;4.10;99.90;;;;;;5018820;28;20438;-59
2020/12/31 04:44:38;;;;;;;13.53;6.73;;;4.10;99.90;;;;;;5018867;28;20455;-59
2020/12/31 04:47:05;;;;;;;11.00;6.60;;;4.10;99.90;;;;;;5018784;28;20457;-58
2020/12/31 04:49:44;;;;;;;10.70;5.90;;;4.10;99.90;;;;;;5018241;28;20456;-58
2020/12/31 04:52:11;;;;;;;9.33;6.43;;;4.10;99.90;;;;;;5018615;28;20458;-60
2020/12/31 04:54:39;;;;;;;9.90;6.07;;;4.10;99.90;;;;;;5018587;28;20482;-61
2020/12/31 04:57:07;;;;;;;10.70;6.33;;;4.20;99.90;;;;;;5018647;28;20462;-58
2020/12/31 04:59:34;;;;;;;9.17;6.07;;;4.20;99.90;;;;;;5018503;28;20474;-59
2020/12/31 05:02:00;;;;;;;9.30;6.10;;;4.30;99.90;;;;;;5018191;28;20462;-60
2020/12/31 05:04:27;;;;;;;12.17;6.30;;;4.20;99.90;;;;;;5018338;28;20431;-60
2020/12/31 05:06:54;;;;;;;11.53;6.50;;;4.20;99.90;;;;;;5017507;28;20518;-60
2020/12/31 05:09:22;;;;;;;10.63;5.80;;;4.30;99.90;;;;;;5018053;28;20446;-61
2020/12/31 05:11:51;;;;;;;9.07;6.13;;;4.30;99.90;;;;;;5017537;28;20473;-59
2020/12/31 05:14:28;;;;;;;16.13;6.80;;;4.20;99.90;;;;;;5017241;28;20477;-59
2020/12/31 05:16:54;;;;;;;10.10;7.87;;;4.20;99.90;;;;;;5016978;28;20444;-61
2020/12/31 05:19:22;;;;;;;7.70;6.27;;;4.20;99.90;;;;;;5017055;28;20531;-60
2020/12/31 05:21:49;;;;;;;14.37;6.47;;;4.20;99.90;;;;;;5016929;28;20470;-60
2020/12/31 05:24:15;;;;;;;11.60;6.43;;;4.20;99.90;;;;;;5016993;28;20438;-60
2020/12/31 05:26:42;;;;;;;12.90;5.93;;;4.10;99.90;;;;;;5018274;28;20433;-60
2020/12/31 05:29:08;;;;;;;7.40;5.37;;;4.10;99.90;;;;;;5017464;28;20449;-60
2020/12/31 05:31:55;;;;;;;8.30;6.00;;;4.10;99.90;;;;;;5016552;28;20446;-61
2020/12/31 05:34:29;;;;;;;10.30;6.57;;;4.20;99.90;;;;;;5016270;28;20512;-60
2020/12/31 05:36:55;;;;;;;11.47;6.30;;;4.20;99.90;;;;;;5015283;28;20462;-60
2020/12/31 05:39:21;;;;;;;8.67;6.30;;;4.10;99.90;;;;;;5015713;28;20476;-61
2020/12/31 05:41:48;;;;;;;10.30;7.00;;;4.10;99.90;;;;;;5015212;28;20466;-58
2020/12/31 05:44:14;;;;;;;8.87;5.97;;;4.10;99.90;;;;;;5016781;28;20446;-59
2020/12/31 05:46:40;;;;;;;10.60;6.07;;;4.10;99.90;;;;;;5016823;28;20526;-61
2020/12/31 05:49:09;;;;;;;8.00;5.30;;;4.10;99.90;;;;;;5017541;28;20509;-59
2020/12/31 05:51:37;;;;;;;9.03;6.07;;;4.00;99.90;;;;;;5017369;28;20502;-59
2020/12/31 05:54:07;;;;;;;11.03;6.30;;;4.00;99.90;;;;;;5016905;28;20486;-59
2020/12/31 05:56:34;;;;;;;9.83;6.50;;;4.00;99.90;;;;;;5016855;28;20505;-59
2020/12/31 05:59:07;;;;;;;10.27;5.93;;;3.90;99.90;;;;;;5017087;28;20501;-57
2020/12/31 06:01:36;;;;;;;9.00;5.70;;;3.80;99.90;;;;;;5017306;28;20445;-60
2020/12/31 06:04:19;;;;;;;8.93;5.60;;;3.80;99.90;;;;;;5016979;28;20446;-58
2020/12/31 06:06:50;;;;;;;9.33;6.23;;;3.80;99.90;;;;;;5017148;28;20934;-60
2020/12/31 06:09:27;;;;;;;9.33;6.70;;;3.80;99.90;;;;;;5017170;28;20456;-59
2020/12/31 06:11:58;;;;;;;10.10;6.83;;;3.80;99.90;;;;;;5016758;28;20435;-59
2020/12/31 06:14:27;;;;;;;8.07;5.33;;;3.70;99.90;;;;;;5017024;28;20478;-59
2020/12/31 06:16:56;;;;;;;10.97;6.03;;;3.60;99.90;;;;;;5016816;28;20442;-60
2020/12/31 06:19:31;;;;;;;10.10;7.07;;;3.60;99.90;;;;;;5016949;28;20505;-59
2020/12/31 06:22:05;;;;;;;11.03;7.00;;;3.50;99.90;;;;;;5016502;28;20456;-58
2020/12/31 06:24:38;;;;;;;13.10;7.40;;;3.50;99.90;;;;;;5016709;28;20501;-56
2020/12/31 06:27:06;;;;;;;9.43;6.63;;;3.50;99.90;;;;;;5016251;28;20903;-55
2020/12/31 06:29:44;;;;;;;9.63;6.97;;;3.50;99.90;;;;;;5015297;28;20498;-56
2020/12/31 06:32:19;;;;;;;9.00;5.77;;;3.50;99.90;;;;;;5009719;28;20449;-54
2020/12/31 06:34:47;;;;;;;9.40;6.57;;;3.50;99.90;;;;;;4999807;28;20470;-58
2020/12/31 06:37:14;;;;;;;11.00;6.80;;;3.50;99.90;;;;;;5001376;28;20533;-55
2020/12/31 06:39:42;;;;;;;10.67;7.70;;;3.50;99.90;;;;;;5001324;28;20513;-55
2020/12/31 06:42:08;;;;;;;19.23;6.77;;;3.40;99.90;;;;;;5001060;28;20465;-60
2020/12/31 06:44:35;;;;;;;10.90;7.47;;;3.40;99.90;;;;;;5001212;28;20557;-60
2020/12/31 06:47:01;;;;;;;10.37;5.67;;;3.40;99.90;;;;;;5001129;28;20541;-59
2020/12/31 06:49:51;;;;;;;8.30;6.07;;;3.40;99.90;;;;;;5001067;28;20492;-60
2020/12/31 06:52:19;;;;;;;7.53;5.40;;;3.40;99.90;;;;;;5002123;28;20477;-60
2020/12/31 06:54:46;;;;;;;9.60;6.37;;;3.40;99.90;;;;;;5001813;28;20521;-57
2020/12/31 06:57:12;;;;;;;9.93;6.47;;;3.40;99.90;;;;;;5001339;28;20533;-59
2020/12/31 06:59:44;;;;;;;9.97;6.60;;;3.30;99.90;;;;;;5001445;28;20464;-59
2020/12/31 07:02:21;;;;;;;6.80;5.43;;;3.30;99.90;;;;;;5001158;28;20802;-59
2020/12/31 07:04:48;;;;;;;9.17;5.80;;;3.30;99.90;;;;;;5000715;28;20448;-56
2020/12/31 07:07:28;;;;;;;9.00;6.23;;;3.30;99.90;;;;;;5000805;28;20457;-50
2020/12/31 07:09:56;;;;;;;9.27;6.00;;;3.30;99.90;;;;;;5001023;28;20450;-51
2020/12/31 07:12:33;;;;;;;8.07;6.10;;;3.30;99.90;;;;;;5000745;28;20462;-58
2020/12/31 07:15:00;;;;;;;9.93;5.90;;;3.30;99.90;;;;;;5002311;28;20489;-56
2020/12/31 07:17:33;;;;;;;10.10;6.50;;;3.20;99.90;;;;;;5001027;28;20497;-59
2020/12/31 07:20:01;;;;;;;13.07;7.93;;;3.10;99.90;;;;;;5002148;28;20481;-59
2020/12/31 07:22:29;;;;;;;8.30;5.30;;;3.10;99.90;;;;;;5002081;28;20450;-58
2020/12/31 07:25:00;;;;;;;10.87;6.77;;;3.10;99.90;;;;;;5001287;28;20492;-51
2020/12/31 07:27:28;;;;;;;11.07;6.13;;;3.10;99.90;;;;;;5001341;28;20531;-57
2020/12/31 07:30:04;;;;;;;7.93;5.33;;;3.10;99.90;;;;;;5001641;28;20553;-59
2020/12/31 07:32:53;;;;;;;9.60;6.00;;;3.10;99.90;;;;;;5001431;28;20509;-57
2020/12/31 07:35:25;;;;;;;8.33;5.33;;;3.00;99.90;;;;;;5001018;28;20554;-59
2020/12/31 07:37:53;;;;;;;8.97;5.67;;;3.10;99.90;;;;;;5000471;28;20474;-59
2020/12/31 07:40:30;;;;;;;8.50;6.40;;;3.10;99.90;;;;;;5000471;28;20461;-59
2020/12/31 07:42:57;;;;;;;7.87;5.60;;;3.10;99.90;;;;;;5000801;28;20438;-55
2020/12/31 07:45:23;;;;;;;9.13;5.43;;;3.10;99.90;;;;;;5000773;28;20941;-58
2020/12/31 07:47:51;;;;;;;10.70;5.70;;;3.10;99.90;;;;;;5001690;28;20517;-58
2020/12/31 07:50:17;;;;;;;10.00;6.80;;;3.20;99.90;;;;;;5001425;28;20445;-59
2020/12/31 07:52:44;;;;;;;13.00;7.37;;;3.30;99.90;;;;;;5000682;28;20465;-60
2020/12/31 07:55:11;;;;;;;11.90;7.10;;;3.30;99.90;;;;;;5000704;28;20871;-57
2020/12/31 07:57:38;;;;;;;11.13;6.53;;;3.40;99.90;;;;;;5000485;28;20549;-60
2020/12/31 08:00:05;;;;;;;8.53;5.60;;;3.40;99.90;;;;;;5003797;28;20446;-58
2020/12/31 08:02:31;;;;;;;9.63;6.27;;;3.50;99.90;;;;;;5004568;28;20533;-56
2020/12/31 08:04:58;;;;;;;13.67;6.37;;;3.60;99.90;;;;;;5005050;28;20465;-54
2020/12/31 08:07:24;;;;;;;8.50;5.87;;;3.60;99.90;;;;;;5005100;28;20986;-57
2020/12/31 08:09:51;;;;;;;7.73;5.50;;;3.80;99.90;;;;;;5005380;28;20445;-57
2020/12/31 08:12:18;;;;;;;10.77;5.87;;;3.70;99.90;;;;;;5004327;28;20460;-58
2020/12/31 08:14:46;;;;;;;8.60;6.40;;;3.80;99.90;;;;;;5004142;28;20521;-58
2020/12/31 08:17:13;;;;;;;9.00;5.43;;;3.80;99.90;;;;;;5003908;28;20556;-58
2020/12/31 08:19:41;;;;;;;10.00;5.50;;;3.90;99.90;;;;;;5003813;28;20480;-58
2020/12/31 08:22:23;;;;;;;9.10;6.13;;;3.80;99.90;;;;;;5003330;28;20552;-55
2020/12/31 08:24:57;;;;;;;8.80;5.47;;;3.80;99.90;;;;;;5004283;28;20521;-55
2020/12/31 08:27:25;;;;;;;9.60;6.17;;;3.80;99.90;;;;;;5003818;28;20538;-53
2020/12/31 08:29:53;;;;;;;6.70;4.93;;;3.90;99.90;;;;;;5003480;28;20526;-52
2020/12/31 08:32:24;;;;;;;6.63;4.97;;;3.90;99.90;;;;;;5003610;28;20460;-58
2020/12/31 08:34:56;;;;;;;12.03;5.93;;;3.80;99.90;;;;;;5004222;28;20489;-57
2020/12/31 08:37:27;;;;;;;8.13;5.10;;;3.80;99.90;;;;;;5003870;28;20811;-58
2020/12/31 08:39:55;;;;;;;7.57;5.00;;;3.90;99.90;;;;;;5003733;28;20528;-58
2020/12/31 08:42:25;;;;;;;7.40;5.23;;;3.90;99.90;;;;;;5003022;28;20557;-56
2020/12/31 08:44:54;;;;;;;8.00;5.30;;;4.00;99.90;;;;;;5003328;28;20899;-58
2020/12/31 08:47:22;;;;;;;12.33;5.27;;;4.00;99.90;;;;;;5003107;28;20536;-56
2020/12/31 08:49:56;;;;;;;10.20;6.10;;;4.00;99.90;;;;;;5002890;28;20474;-58
2020/12/31 08:52:25;;;;;;;7.47;5.10;;;4.10;99.90;;;;;;5003657;28;20528;-56
2020/12/31 08:55:08;;;;;;;7.20;4.90;;;4.20;99.90;;;;;;5003546;28;20628;-58
2020/12/31 08:57:35;;;;;;;8.10;5.53;;;4.20;99.90;;;;;;5002800;28;20442;-58
2020/12/31 09:00:02;;;;;;;6.87;5.13;;;4.20;99.90;;;;;;5003542;28;20446;-55
2020/12/31 09:02:29;;;;;;;8.77;4.97;;;4.20;99.90;;;;;;5003293;28;20537;-54
2020/12/31 09:05:15;;;;;;;9.80;4.80;;;4.20;99.90;;;;;;5002216;28;20607;-52
2020/12/31 09:07:42;;;;;;;7.30;5.03;;;4.20;99.90;;;;;;5002315;28;20544;-54
2020/12/31 09:10:17;;;;;;;5.80;4.43;;;4.30;99.90;;;;;;5001964;28;20457;-55
2020/12/31 09:12:46;;;;;;;6.97;5.10;;;4.30;99.90;;;;;;5002239;28;20866;-57
2020/12/31 09:15:20;;;;;;;7.73;5.30;;;4.40;99.90;;;;;;5002528;28;20490;-58
2020/12/31 09:17:47;;;;;;;8.03;4.53;;;4.40;99.90;;;;;;5002944;28;20576;-58
2020/12/31 09:20:24;;;;;;;8.53;4.90;;;4.40;99.90;;;;;;5002920;28;20477;-59
2020/12/31 09:22:52;;;;;;;8.00;4.90;;;4.50;99.90;;;;;;5003145;28;20548;-56
2020/12/31 09:25:19;;;;;;;6.17;4.87;;;4.50;99.90;;;;;;5002605;28;20485;-59
2020/12/31 09:27:47;;;;;;;6.80;5.10;;;4.50;99.90;;;;;;5001783;28;20557;-58
2020/12/31 09:30:17;;;;;;;6.53;4.93;;;4.50;99.90;;;;;;5001312;28;20442;-56
2020/12/31 09:32:47;;;;;;;8.47;4.97;;;4.50;99.90;;;;;;5002017;28;20557;-54
2020/12/31 09:35:14;;;;;;;10.07;5.30;;;4.50;99.90;;;;;;5001840;28;20481;-58
2020/12/31 09:37:48;;;;;;;6.77;5.10;;;4.50;99.90;;;;;;5001707;28;20473;-51
2020/12/31 09:40:15;;;;;;;13.67;6.80;;;4.60;99.90;;;;;;5002126;28;20446;-50
2020/12/31 09:42:42;;;;;;;8.93;5.40;;;4.60;99.90;;;;;;5001836;28;20512;-56
2020/12/31 09:45:09;;;;;;;8.27;4.63;;;4.70;99.90;;;;;;5001537;28;20454;-57
2020/12/31 09:47:36;;;;;;;12.33;5.67;;;4.70;99.90;;;;;;5001186;28;20482;-55
2020/12/31 09:50:02;;;;;;;6.30;4.83;;;4.80;99.90;;;;;;5000484;28;20473;-52
2020/12/31 09:52:32;;;;;;;7.43;4.90;;;4.90;99.90;;;;;;5001417;28;20461;-58
2020/12/31 09:54:59;;;;;;;5.97;4.10;;;4.90;99.90;;;;;;5001551;28;20477;-58
2020/12/31 09:57:26;;;;;;;6.57;4.30;;;5.00;99.90;;;;;;5001279;28;20458;-59
2020/12/31 09:59:52;;;;;;;5.00;4.13;;;5.00;99.90;;;;;;5001041;28;20540;-59
2020/12/31 10:02:20;;;;;;;7.97;5.07;;;5.10;99.90;;;;;;5000959;28;20528;-57
2020/12/31 10:04:46;;;;;;;5.97;4.70;;;5.20;99.90;;;;;;5001076;28;20446;-59
2020/12/31 10:07:13;;;;;;;5.83;4.77;;;5.30;99.90;;;;;;5000874;28;20450;-57
2020/12/31 10:09:39;;;;;;;6.80;5.07;;;5.30;99.90;;;;;;5001334;28;20927;-55
2020/12/31 10:12:06;;;;;;;7.93;5.10;;;5.30;99.90;;;;;;5000208;28;20553;-57
2020/12/31 10:14:32;;;;;;;6.27;4.63;;;5.20;99.90;;;;;;5000791;28;20565;-55
2020/12/31 10:16:59;;;;;;;7.83;4.30;;;5.20;99.90;;;;;;5000387;28;20461;-56
2020/12/31 10:19:26;;;;;;;9.00;5.60;;;5.20;99.90;;;;;;5000382;28;20508;-56
2020/12/31 10:21:53;;;;;;;6.50;4.50;;;5.20;99.90;;;;;;4999786;28;20565;-58
2020/12/31 10:24:20;;;;;;;7.63;5.67;;;5.30;99.90;;;;;;5000954;28;20452;-58
2020/12/31 10:26:46;;;;;;;6.40;4.40;;;5.30;99.90;;;;;;5001121;28;20529;-59
2020/12/31 10:29:14;;;;;;;8.13;5.57;;;5.30;99.90;;;;;;5000238;28;20489;-58
2020/12/31 10:31:42;;;;;;;5.80;4.50;;;5.30;99.90;;;;;;5000175;28;20454;-59
2020/12/31 10:34:09;;;;;;;6.30;4.93;;;5.30;99.90;;;;;;5000272;28;21045;-60
2020/12/31 10:36:42;;;;;;;7.10;4.83;;;5.40;99.90;;;;;;5000381;28;20469;-58
2020/12/31 10:39:09;;;;;;;6.10;4.43;;;5.50;99.90;;;;;;5000252;28;20493;-59
2020/12/31 10:41:35;;;;;;;7.30;4.03;;;5.60;99.90;;;;;;5000366;28;20537;-58
2020/12/31 10:44:02;;;;;;;7.83;5.23;;;5.60;99.90;;;;;;4999900;28;20501;-55
2020/12/31 10:46:30;;;;;;;7.77;5.20;;;5.60;99.90;;;;;;5000302;28;20771;-58
2020/12/31 10:48:56;;;;;;;6.87;4.40;;;5.70;99.90;;;;;;4999566;28;20784;-58
2020/12/31 10:51:23;;;;;;;7.53;4.67;;;5.80;99.90;;;;;;4999691;28;20477;-58
2020/12/31 10:53:50;;;;;;;6.50;5.30;;;5.80;99.90;;;;;;4999499;28;20446;-54
2020/12/31 10:56:20;;;;;;;8.40;4.83;;;5.80;99.90;;;;;;4999949;28;20467;-59
2020/12/31 10:58:47;;;;;;;6.43;4.47;;;5.90;99.90;;;;;;4999261;28;20469;-58
2020/12/31 11:01:14;;;;;;;5.57;4.40;;;5.90;99.90;;;;;;4999472;28;20450;-55
2020/12/31 11:03:42;;;;;;;6.67;4.87;;;5.90;99.90;;;;;;4999658;28;20508;-56
2020/12/31 11:06:09;;;;;;;5.10;3.80;;;6.00;99.90;;;;;;4999465;28;20544;-58
2020/12/31 11:08:37;;;;;;;6.10;4.63;;;6.10;99.90;;;;;;4998825;28;20515;-53
2020/12/31 11:11:04;;;;;;;5.80;3.77;;;6.20;99.90;;;;;;4999717;28;20446;-58
2020/12/31 11:13:30;;;;;;;5.87;4.10;;;6.30;99.90;;;;;;4999068;28;20852;-58
2020/12/31 11:15:57;;;;;;;8.87;6.30;;;6.40;99.90;;;;;;4998948;28;21004;-58
2020/12/31 11:18:23;;;;;;;5.47;4.43;;;6.30;99.90;;;;;;4997858;28;20927;-61
2020/12/31 11:20:53;;;;;;;5.70;4.83;;;6.20;99.90;;;;;;4998906;28;20508;-59
2020/12/31 11:23:19;;;;;;;8.27;4.57;;;6.20;99.90;;;;;;4998792;28;20445;-59
2020/12/31 11:25:46;;;;;;;6.90;4.77;;;6.10;99.90;;;;;;4999039;28;20537;-57
2020/12/31 11:28:13;;;;;;;7.23;4.93;;;6.10;99.90;;;;;;4998888;28;20462;-55
2020/12/31 11:30:40;;;;;;;7.40;4.00;;;6.10;99.90;;;;;;4998950;28;20442;-53
2020/12/31 11:33:06;;;;;;;7.67;4.83;;;6.10;99.90;;;;;;4998323;28;20446;-56
2020/12/31 11:35:33;;;;;;;4.80;3.43;;;6.10;99.90;;;;;;4998552;28;21014;-50
2020/12/31 11:37:59;;;;;;;5.30;4.57;;;6.20;99.90;;;;;;4998475;28;20548;-54
2020/12/31 11:40:28;;;;;;;7.23;4.60;;;6.20;99.90;;;;;;4998924;28;20546;-55
2020/12/31 11:42:56;;;;;;;6.40;4.60;;;6.20;99.90;;;;;;4999164;28;20557;-59
2020/12/31 11:45:24;;;;;;;5.63;4.93;;;6.20;99.90;;;;;;4998910;28;20449;-52
2020/12/31 11:47:51;;;;;;;7.63;5.17;;;6.20;99.90;;;;;;4999084;28;20434;-56
2020/12/31 11:50:18;;;;;;;8.60;5.80;;;6.20;99.90;;;;;;4998999;28;20454;-58
2020/12/31 11:52:44;;;;;;;6.47;5.20;;;6.30;99.90;;;;;;4998751;28;20446;-58
2020/12/31 11:55:11;;;;;;;7.03;4.37;;;6.20;99.90;;;;;;4998895;28;20482;-59
2020/12/31 11:57:37;;;;;;;8.20;5.33;;;6.20;99.90;;;;;;4998857;28;20564;-56
2020/12/31 12:00:05;;;;;;;7.87;5.17;;;6.20;99.90;;;;;;4998483;28;20461;-54
2020/12/31 12:02:33;;;;;;;5.70;4.60;;;6.20;99.90;;;;;;4999442;28;20512;-57
2020/12/31 12:05:00;;;;;;;8.00;5.40;;;6.20;99.90;;;;;;4998121;28;20450;-56
2020/12/31 12:07:26;;;;;;;5.63;4.63;;;6.20;99.90;;;;;;4999318;28;20446;-56
2020/12/31 12:09:53;;;;;;;8.13;5.27;;;6.20;99.90;;;;;;4998786;28;20503;-58
2020/12/31 12:12:19;;;;;;;12.03;5.20;;;6.20;99.90;;;;;;4998511;28;20484;-57
2020/12/31 12:14:46;;;;;;;10.53;7.00;;;6.20;99.90;;;;;;4998340;28;20974;-56
2020/12/31 12:17:13;;;;;;;7.70;4.73;;;6.20;99.90;;;;;;4998361;28;20446;-54
2020/12/31 12:19:40;;;;;;;8.33;5.17;;;6.20;99.90;;;;;;4998927;28;20446;-56
2020/12/31 12:22:07;;;;;;;8.37;4.77;;;6.20;99.90;;;;;;4998321;28;20482;-55
2020/12/31 12:24:33;;;;;;;6.57;5.10;;;6.20;99.90;;;;;;4998574;28;20834;-57
2020/12/31 12:27:00;;;;;;;8.50;5.97;;;6.30;99.90;;;;;;4997595;28;20512;-54
2020/12/31 12:29:27;;;;;;;5.10;4.60;;;6.30;99.90;;;;;;4998241;28;20537;-58
2020/12/31 12:31:53;;;;;;;7.53;4.60;;;6.20;99.90;;;;;;4999189;28;20438;-54
2020/12/31 12:34:20;;;;;;;6.40;4.33;;;6.20;99.90;;;;;;4998834;28;20526;-58
2020/12/31 12:36:49;;;;;;;8.53;5.80;;;6.20;99.90;;;;;;4998309;28;20482;-58
2020/12/31 12:39:16;;;;;;;7.40;4.70;;;6.10;99.90;;;;;;4998630;28;20986;-57
2020/12/31 12:41:43;;;;;;;6.17;4.97;;;6.20;99.90;;;;;;4998687;28;20450;-57
2020/12/31 12:44:11;;;;;;;9.50;5.40;;;6.20;99.90;;;;;;4998500;28;20529;-57
2020/12/31 12:46:38;;;;;;;9.50;4.87;;;6.20;99.90;;;;;;5001897;28;20453;-59
2020/12/31 12:49:04;;;;;;;8.40;5.63;;;6.30;99.90;;;;;;5002009;28;20464;-58
2020/12/31 12:51:31;;;;;;;7.67;5.60;;;6.30;99.90;;;;;;5002165;28;20782;-58
2020/12/31 12:53:59;;;;;;;6.63;5.23;;;6.30;99.90;;;;;;5002154;28;20442;-57
2020/12/31 12:56:26;;;;;;;6.27;4.63;;;6.30;99.90;;;;;;5002431;28;20446;-59
2020/12/31 12:58:52;;;;;;;7.10;4.23;;;6.20;99.90;;;;;;5001740;28;20489;-59